Sylvania, Pennsylvania
Current Conditions -  °F | °C
As of 12:53 AM on Sunday 26 Oct 2014 (Local Time) from KELM Reporting Station
Scattered Clouds Scattered Clouds  
Wind Chill: 51°   Ceiling: Unl
Heat Index: 51°   Visibility: 10mi
Dew Point: 44°   Wind: 6mph
Humidity: 77%   Direction: 280°W
Pressure: 29.62"   Gusts: NA
Location:  41.81°N, 76.86°W
Report Text: KELM 260453Z AUTO 28005KT 10SM SCT050 SCT070 11/07 A2962 RMK AO2 WSHFT 0419 LTG DSNT E RAB30E50 SLP028 P0001 T01060067 402060022
Loading
Personal Weather Stations






























Interactive Weather Map
Tropical Storm Tracking
New forecast layout! Learn more

10-Day Weather Forecast

Advertisements
Track Severe Weather on mobile